Duane, Kentucky
Current Conditions -  °F | °C
As of 3:53 PM on Sunday 23 Nov 2014 (Local Time) from KJKL Reporting Station
Light Rain Light Rain  
Wind Chill: 53°   Ceiling: 8000
Heat Index: 53°   Visibility: 5mi
Dew Point: 50°   Wind: 3mph
Humidity: 89%   Direction: NA
Pressure: 29.69"   Gusts: NA
Location:  37.3318°N, 83.1697°W
Report Text: KJKL 232053Z AUTO VRB03KT 5SM -RA BR OVC080 12/10 A2969 RMK AO2 PRESFR SLP050 P0004 60011 T01170100 58055
Loading
Personal Weather Stations






























Interactive Weather Map New forecast layout! Learn more

10-Day Weather Forecast

Advertisements
Track Severe Weather on mobile